createdAt,value
2023-09-29T00:02:48.215Z,7.28
2023-09-29T00:07:53.754Z,8.57
2023-09-29T00:12:55.308Z,7.38
2023-09-29T00:17:56.827Z,8.00
2023-09-29T00:23:00.438Z,7.78
2023-09-29T00:28:01.989Z,8.10
2023-09-29T00:33:04.706Z,7.75
2023-09-29T00:38:06.924Z,7.90
2023-09-29T00:43:09.540Z,7.78
2023-09-29T00:48:11.677Z,7.65
2023-09-29T00:53:16.654Z,8.43
2023-09-29T00:58:18.569Z,7.45
2023-09-29T01:03:20.297Z,8.13
2023-09-29T01:08:24.211Z,6.97
2023-09-29T01:13:25.818Z,7.22
2023-09-29T01:18:27.576Z,7.45
2023-09-29T01:23:32.232Z,7.75
2023-09-29T01:28:34.796Z,7.90
2023-09-29T01:33:40.361Z,8.10
2023-09-29T01:38:42.013Z,7.75
2023-09-29T01:43:43.541Z,7.40
2023-09-29T01:48:46.114Z,8.13
2023-09-29T01:53:47.964Z,7.95
2023-09-29T01:58:50.275Z,7.45
2023-09-29T02:03:52.485Z,9.05
2023-09-29T02:08:54.174Z,8.10
2023-09-29T02:13:55.875Z,7.40
2023-09-29T02:18:57.714Z,7.47
2023-09-29T02:24:00.077Z,8.48
2023-09-29T02:29:02.184Z,7.82
2023-09-29T02:34:04.496Z,7.97
2023-09-29T02:39:06.101Z,7.78
2023-09-29T02:44:08.349Z,7.65
2023-09-29T02:49:10.498Z,7.75
2023-09-29T02:54:12.068Z,7.75
2023-09-29T02:59:13.603Z,7.93
2023-09-29T03:04:15.101Z,7.82
2023-09-29T03:09:19.785Z,7.22
2023-09-29T03:14:22.212Z,7.90
2023-09-29T03:19:23.715Z,7.78
2023-09-29T03:24:30.411Z,7.40
2023-09-29T03:29:32.306Z,7.63
2023-09-29T03:34:33.832Z,7.68
2023-09-29T03:39:35.356Z,7.57
2023-09-29T03:44:37.944Z,7.82
2023-09-29T03:49:40.146Z,7.78
2023-09-29T03:54:41.711Z,6.80
2023-09-29T03:59:43.799Z,7.13
2023-09-29T04:04:45.299Z,7.60
2023-09-29T04:09:47.201Z,7.35
2023-09-29T04:14:48.828Z,7.18
2023-09-29T04:19:50.530Z,7.28
2023-09-29T04:24:52.506Z,8.07
2023-09-29T04:29:54.195Z,7.25
2023-09-29T04:34:55.844Z,7.47
2023-09-29T04:39:58.445Z,7.60
2023-09-29T04:44:59.969Z,7.32
2023-09-29T04:50:01.549Z,7.00
2023-09-29T04:55:03.130Z,7.78
2023-09-29T05:00:05.089Z,7.55
2023-09-29T05:05:07.222Z,7.82
2023-09-29T05:10:09.186Z,7.10
2023-09-29T05:15:11.257Z,7.65
2023-09-29T05:20:13.868Z,7.03
2023-09-29T05:25:15.450Z,7.65
2023-09-29T05:30:17.792Z,7.28
2023-09-29T05:35:19.295Z,8.45
2023-09-29T05:40:20.911Z,6.95
2023-09-29T05:45:22.581Z,7.72
2023-09-29T05:50:24.140Z,8.23
2023-09-29T05:55:26.387Z,7.70
2023-09-29T06:00:28.327Z,8.60
2023-09-29T06:05:30.634Z,7.80
2023-09-29T06:10:32.229Z,7.15
2023-09-29T06:15:33.849Z,7.50
2023-09-29T06:20:35.576Z,7.50
2023-09-29T06:25:37.085Z,8.05
2023-09-29T06:30:39.027Z,8.27
2023-09-29T06:35:42.199Z,8.45
2023-09-29T06:40:45.210Z,8.80
2023-09-29T06:46:00.358Z,8.95
2023-09-29T06:51:03.684Z,8.43
2023-09-29T06:56:05.261Z,8.48
2023-09-29T07:01:08.585Z,8.25
2023-09-29T07:06:10.270Z,6.85
2023-09-29T07:11:11.830Z,8.82
2023-09-29T07:16:14.710Z,7.28
2023-09-29T07:21:16.334Z,8.45
2023-09-29T07:26:17.946Z,8.57
2023-09-29T07:31:19.605Z,8.30
2023-09-29T07:36:21.217Z,7.30
2023-09-29T07:41:22.716Z,7.55
2023-09-29T07:46:24.344Z,7.28
2023-09-29T07:51:26.306Z,7.93
2023-09-29T07:56:27.832Z,7.72
2023-09-29T08:01:29.324Z,6.63
2023-09-29T08:06:30.881Z,7.28
2023-09-29T08:11:32.357Z,7.22
2023-09-29T08:16:35.310Z,6.97
2023-09-29T08:21:36.968Z,7.07
2023-09-29T08:26:39.091Z,6.93
2023-09-29T08:31:40.829Z,6.03
2023-09-29T08:36:42.821Z,6.25
2023-09-29T08:41:55.936Z,6.10
2023-09-29T08:47:02.112Z,5.03
2023-09-29T08:52:04.612Z,5.75
2023-09-29T08:57:07.275Z,5.32
2023-09-29T09:02:09.363Z,5.50
2023-09-29T09:07:11.042Z,4.68
2023-09-29T09:12:12.550Z,4.80
2023-09-29T09:17:14.133Z,4.70
2023-09-29T09:22:16.677Z,4.30
2023-09-29T09:27:19.500Z,4.43
2023-09-29T09:32:28.461Z,4.72
2023-09-29T09:37:30.220Z,4.55
2023-09-29T09:42:32.284Z,3.88
2023-09-29T09:47:34.306Z,3.35
2023-09-29T09:52:36.707Z,2.25
2023-09-29T09:57:39.940Z,1.70
2023-09-29T10:02:47.447Z,1.85
2023-09-29T10:07:52.992Z,1.60
2023-09-29T10:12:56.194Z,1.45
2023-09-29T10:18:01.588Z,1.70
2023-09-29T10:23:07.627Z,2.25
2023-09-29T10:28:13.605Z,2.40
2023-09-29T10:33:15.198Z,2.22
2023-09-29T10:38:27.681Z,1.95
2023-09-29T10:43:29.227Z,1.77
2023-09-29T10:48:31.080Z,1.70
2023-09-29T10:53:37.482Z,1.67
2023-09-29T10:58:42.129Z,1.80
2023-09-29T11:03:44.962Z,1.95
2023-09-29T11:08:54.955Z,1.70
2023-09-29T11:13:58.380Z,1.85
2023-09-29T11:19:16.863Z,1.63
2023-09-29T11:24:20.435Z,1.75
2023-09-29T11:29:29.292Z,1.50
2023-09-29T11:34:32.985Z,1.80
2023-09-29T11:39:34.581Z,1.70
2023-09-29T11:44:36.270Z,2.03
2023-09-29T11:49:37.806Z,1.58
2023-09-29T11:54:39.343Z,1.75
2023-09-29T11:59:41.278Z,1.60
2023-09-29T12:04:43.190Z,1.52
2023-09-29T12:09:44.744Z,1.65
2023-09-29T12:14:46.436Z,2.00
2023-09-29T12:19:48.194Z,2.10
2023-09-29T12:24:51.083Z,1.90
2023-09-29T12:29:52.778Z,3.55
2023-09-29T12:34:55.030Z,7.28
2023-09-29T12:39:56.532Z,2.10
2023-09-29T12:44:58.296Z,1.92
2023-09-29T12:49:59.788Z,1.70
2023-09-29T12:55:01.342Z,1.60
2023-09-29T13:00:05.785Z,1.90
2023-09-29T13:05:09.968Z,1.98
2023-09-29T13:10:11.551Z,2.25
2023-09-29T13:15:13.091Z,2.28
2023-09-29T13:20:15.060Z,1.80
2023-09-29T13:25:16.681Z,1.85
2023-09-29T13:30:18.467Z,1.88
2023-09-29T13:35:20.066Z,1.90
2023-09-29T13:40:22.218Z,2.15
2023-09-29T13:45:23.926Z,2.13
2023-09-29T13:50:25.634Z,2.42
2023-09-29T13:55:27.220Z,2.40
2023-09-29T14:00:28.738Z,2.38
2023-09-29T14:05:30.310Z,2.38
2023-09-29T14:10:32.788Z,2.28
2023-09-29T14:15:34.348Z,2.45
2023-09-29T14:20:36.972Z,2.70
2023-09-29T14:25:38.917Z,2.60
2023-09-29T14:30:42.157Z,2.60
2023-09-29T14:35:49.187Z,2.85
2023-09-29T14:40:51.093Z,2.92
2023-09-29T14:45:53.416Z,2.75
2023-09-29T14:50:55.049Z,2.70
2023-09-29T14:55:56.567Z,2.72
2023-09-29T15:00:58.550Z,1.80
2023-09-29T15:06:01.284Z,1.73
2023-09-29T15:11:03.988Z,1.58
2023-09-29T15:16:11.396Z,1.40
2023-09-29T15:21:12.978Z,1.00
2023-09-29T15:26:14.479Z,1.10
2023-09-29T15:31:16.007Z,1.15
2023-09-29T15:36:17.965Z,1.02
2023-09-29T15:41:19.900Z,1.08
2023-09-29T15:46:21.440Z,2.85
2023-09-29T15:51:23.089Z,2.00
2023-09-29T15:56:24.679Z,2.03
2023-09-29T16:01:26.257Z,1.65
2023-09-29T16:06:27.872Z,1.33
2023-09-29T16:11:29.466Z,1.20
2023-09-29T16:16:31.141Z,1.77
2023-09-29T16:21:32.709Z,1.83
2023-09-29T16:26:34.305Z,1.50
2023-09-29T16:31:35.866Z,1.42
2023-09-29T16:36:37.477Z,1.60
2023-09-29T16:41:39.007Z,1.50
2023-09-29T16:46:40.612Z,1.67
2023-09-29T16:51:42.095Z,1.58
2023-09-29T16:56:43.577Z,1.30
2023-09-29T17:01:45.080Z,1.50
2023-09-29T17:06:46.608Z,1.45
2023-09-29T17:11:48.619Z,1.90
2023-09-29T17:16:50.245Z,1.92
2023-09-29T17:21:51.763Z,2.08
2023-09-29T17:26:53.392Z,2.22
2023-09-29T17:31:55.441Z,1.98
2023-09-29T17:36:56.934Z,2.17
2023-09-29T17:42:00.126Z,1.80
2023-09-29T17:47:01.712Z,2.00
2023-09-29T17:52:03.716Z,1.90
2023-09-29T17:57:05.241Z,1.63
2023-09-29T18:02:07.081Z,1.80
2023-09-29T18:07:10.795Z,1.90
2023-09-29T18:12:12.352Z,1.98
2023-09-29T18:17:13.921Z,2.15
2023-09-29T18:22:15.443Z,1.98
2023-09-29T18:27:17.753Z,2.35
2023-09-29T18:32:19.390Z,2.30
2023-09-29T18:37:22.423Z,2.50
2023-09-29T18:42:25.634Z,2.22
2023-09-29T18:47:27.197Z,2.17
2023-09-29T18:52:28.775Z,1.90
2023-09-29T18:57:30.402Z,2.05
2023-09-29T19:02:33.071Z,1.90
2023-09-29T19:07:34.684Z,2.30
2023-09-29T19:12:36.745Z,2.35
2023-09-29T19:17:39.137Z,2.00
2023-09-29T19:22:41.101Z,2.58
2023-09-29T19:27:42.583Z,2.22
2023-09-29T19:32:45.239Z,2.00
2023-09-29T19:37:47.090Z,2.20
2023-09-29T19:42:49.112Z,2.35
2023-09-29T19:47:51.468Z,2.30
2023-09-29T19:52:53.007Z,2.30
2023-09-29T19:57:54.488Z,2.70
2023-09-29T20:02:56.048Z,2.30
2023-09-29T20:07:57.698Z,2.35
2023-09-29T20:12:59.226Z,2.47
2023-09-29T20:18:01.191Z,2.58
2023-09-29T20:23:03.590Z,2.53
2023-09-29T20:28:05.460Z,2.22
2023-09-29T20:33:08.743Z,2.50
2023-09-29T20:38:10.932Z,2.22
2023-09-29T20:43:12.549Z,2.67
2023-09-29T20:48:17.987Z,2.53
2023-09-29T20:53:20.934Z,2.85
2023-09-29T20:58:22.905Z,2.72
2023-09-29T21:03:24.509Z,2.80
2023-09-29T21:08:26.060Z,3.05
2023-09-29T21:13:28.189Z,2.97
2023-09-29T21:18:29.726Z,3.40
2023-09-29T21:23:31.719Z,3.15
2023-09-29T21:28:35.195Z,3.30
2023-09-29T21:33:36.731Z,3.00
2023-09-29T21:38:38.245Z,3.17
2023-09-29T21:43:40.028Z,3.40
2023-09-29T21:48:41.564Z,3.60
2023-09-29T21:53:43.109Z,3.63
2023-09-29T21:58:44.604Z,3.50
2023-09-29T22:03:46.349Z,4.25
2023-09-29T22:08:48.518Z,4.13
2023-09-29T22:13:50.404Z,3.85
2023-09-29T22:18:52.920Z,3.83
2023-09-29T22:23:54.575Z,3.78
2023-09-29T22:28:57.368Z,4.30
2023-09-29T22:33:59.272Z,4.47
2023-09-29T22:39:01.143Z,4.30
2023-09-29T22:44:02.662Z,4.38
2023-09-29T22:49:04.252Z,5.13
2023-09-29T22:54:08.734Z,4.05
2023-09-29T22:59:12.953Z,4.47
2023-09-29T23:04:14.450Z,4.78
2023-09-29T23:09:16.036Z,4.65
2023-09-29T23:14:17.812Z,5.38
2023-09-29T23:19:19.760Z,4.60
2023-09-29T23:24:22.376Z,4.75
2023-09-29T23:29:23.991Z,5.28
2023-09-29T23:34:25.724Z,4.80
2023-09-29T23:39:27.267Z,4.53
2023-09-29T23:44:32.413Z,4.60
2023-09-29T23:49:33.889Z,3.80
2023-09-29T23:54:35.449Z,3.22
2023-09-29T23:59:36.940Z,2.83
